PWSweather.com
Personal Weather Stations
Station Observations
KOHAVON11
Long Road Station, Avon, OH 44011

Long Road StationAvon, OH 44011

Lat: 41.437, Lon: -82.0477

Elevation: 686

Station Type: Davis Vantage Pro2

http://www.avon-weather.com

High Low Average
Temperature 17.8°F-7.9°C 7.5°F-13.6°C 10.8°F-11.8°C
Dew Point 8.6°F-13.0°C -5.3°F-20.7°C 2.1°F-16.6°C
Winds 6.0 mph 9.7 kmh Calm Calm 1.0 mph SE1.6 kmh SE
Wind Gusts 7.0 mph11.3 kmh -- 2.0 mph3.2 kmh
Humidity 76% 55% 68%
Pressure 30.45 in1031.2 mb 30.38 in1028.8 mb -
Precipitation 0.03 in0.8 mm - -
Hour Temp Dew Point Humidity Winds Wind Gusts Pressure Precip Precip Rate Daily Precip Total
12:04 AM 7.7°F-13.5°C -5.3°F-20.7°C 55% Calm Calm -- 30.45 in1031.2 mb 0.00 in0.0 mm 0.00 in0.0 mm 0.00 in0.0 mm
12:09 AM 7.7°F-13.5°C -5.3°F-20.7°C 55% Calm Calm -- 30.45 in1031.2 mb 0.00 in0.0 mm 0.00 in0.0 mm 0.00 in0.0 mm
12:14 AM 7.7°F-13.5°C -5.3°F-20.7°C 55% Calm Calm -- 30.45 in1031.2 mb 0.00 in0.0 mm 0.00 in0.0 mm 0.00 in0.0 mm
12:19 AM 7.8°F-13.4°C -5.2°F-20.7°C 55% Calm Calm -- 30.45 in1031.2 mb 0.00 in0.0 mm 0.00 in0.0 mm 0.00 in0.0 mm
12:24 AM 7.8°F-13.4°C -5.2°F-20.7°C 55% Calm Calm -- 30.44 in1030.8 mb 0.00 in0.0 mm 0.00 in0.0 mm 0.00 in0.0 mm
12:29 AM 7.8°F-13.4°C -5.2°F-20.7°C 55% Calm Calm -- 30.44 in1030.8 mb 0.00 in0.0 mm 0.00 in0.0 mm 0.00 in0.0 mm
12:34 AM 7.8°F-13.4°C -5.2°F-20.7°C 55% Calm Calm -- 30.44 in1030.8 mb 0.00 in0.0 mm 0.00 in0.0 mm 0.00 in0.0 mm
12:39 AM 7.8°F-13.4°C -5.2°F-20.7°C 55% Calm Calm 3.0 mph4.8 kmh 30.44 in1030.8 mb 0.00 in0.0 mm 0.00 in0.0 mm 0.00 in0.0 mm
12:44 AM 7.9°F-13.4°C -5.1°F-20.6°C 55% Calm Calm -- 30.44 in1030.8 mb 0.00 in0.0 mm 0.00 in0.0 mm 0.00 in0.0 mm
12:49 AM 7.9°F-13.4°C -5.1°F-20.6°C 55% Calm Calm 3.0 mph4.8 kmh 30.44 in1030.8 mb 0.00 in0.0 mm 0.00 in0.0 mm 0.00 in0.0 mm
12:54 AM 7.9°F-13.4°C -5.1°F-20.6°C 55% 2.0 mph SW3.2 kmh SW 2.0 mph3.2 kmh 30.44 in1030.8 mb 0.00 in0.0 mm 0.00 in0.0 mm 0.00 in0.0 mm
12:59 AM 7.9°F-13.4°C -5.1°F-20.6°C 55% Calm Calm 3.0 mph4.8 kmh 30.44 in1030.8 mb 0.00 in0.0 mm 0.00 in0.0 mm 0.00 in0.0 mm
01:04 AM 7.9°F-13.4°C -5.1°F-20.6°C 55% Calm Calm -- 30.43 in1030.5 mb 0.00 in0.0 mm 0.00 in0.0 mm 0.00 in0.0 mm
01:09 AM 7.9°F-13.4°C -5.1°F-20.6°C 55% 2.0 mph SSE3.2 kmh SSE 3.0 mph4.8 kmh 30.43 in1030.5 mb 0.00 in0.0 mm 0.00 in0.0 mm 0.00 in0.0 mm
01:14 AM 7.9°F-13.4°C -5.1°F-20.6°C 55% 1.0 mph SSE1.6 kmh SSE 3.0 mph4.8 kmh 30.43 in1030.5 mb 0.00 in0.0 mm 0.00 in0.0 mm 0.00 in0.0 mm
01:19 AM 7.9°F-13.4°C -4.7°F-20.4°C 56% Calm Calm 3.0 mph4.8 kmh 30.43 in1030.5 mb 0.00 in0.0 mm 0.00 in0.0 mm 0.00 in0.0 mm
01:24 AM 7.9°F-13.4°C -4.7°F-20.4°C 56% 1.0 mph SE1.6 kmh SE 2.0 mph3.2 kmh 30.42 in1030.1 mb 0.00 in0.0 mm 0.00 in0.0 mm 0.00 in0.0 mm
01:29 AM 7.9°F-13.4°C -4.7°F-20.4°C 56% Calm Calm 1.0 mph1.6 kmh 30.42 in1030.1 mb 0.00 in0.0 mm 0.00 in0.0 mm 0.00 in0.0 mm
01:34 AM 7.9°F-13.4°C -4.7°F-20.4°C 56% 1.0 mph SE1.6 kmh SE 2.0 mph3.2 kmh 30.42 in1030.1 mb 0.00 in0.0 mm 0.00 in0.0 mm 0.00 in0.0 mm
01:39 AM 7.8°F-13.4°C -4.8°F-20.4°C 56% Calm Calm 3.0 mph4.8 kmh 30.42 in1030.1 mb 0.00 in0.0 mm 0.00 in0.0 mm 0.00 in0.0 mm
01:44 AM 7.8°F-13.4°C -4.4°F-20.2°C 57% 1.0 mph SE1.6 kmh SE 3.0 mph4.8 kmh 30.42 in1030.1 mb 0.00 in0.0 mm 0.00 in0.0 mm 0.00 in0.0 mm
01:49 AM 7.9°F-13.4°C -4.3°F-20.2°C 57% 1.0 mph S1.6 kmh S 2.0 mph3.2 kmh 30.42 in1030.1 mb 0.00 in0.0 mm 0.00 in0.0 mm 0.00 in0.0 mm
01:54 AM 7.9°F-13.4°C -4.3°F-20.2°C 57% Calm Calm 2.0 mph3.2 kmh 30.42 in1030.1 mb 0.00 in0.0 mm 0.00 in0.0 mm 0.00 in0.0 mm
01:59 AM 7.9°F-13.4°C -4.3°F-20.2°C 57% 4.0 mph ESE6.4 kmh ESE 4.0 mph6.4 kmh 30.41 in1029.8 mb 0.00 in0.0 mm 0.00 in0.0 mm 0.00 in0.0 mm
02:04 AM 8.0°F-13.3°C -4.2°F-20.1°C 57% Calm Calm 2.0 mph3.2 kmh 30.42 in1030.1 mb 0.00 in0.0 mm 0.00 in0.0 mm 0.00 in0.0 mm
02:09 AM 8.1°F-13.3°C -4.1°F-20.1°C 57% 4.0 mph SE6.4 kmh SE 4.0 mph6.4 kmh 30.41 in1029.8 mb 0.00 in0.0 mm 0.00 in0.0 mm 0.00 in0.0 mm
02:14 AM 8.1°F-13.3°C -4.1°F-20.1°C 57% 3.0 mph SE4.8 kmh SE 4.0 mph6.4 kmh 30.41 in1029.8 mb 0.00 in0.0 mm 0.00 in0.0 mm 0.00 in0.0 mm
02:19 AM 8.2°F-13.2°C -3.7°F-19.8°C 58% Calm Calm -- 30.42 in1030.1 mb 0.00 in0.0 mm 0.00 in0.0 mm 0.00 in0.0 mm
02:24 AM 8.3°F-13.2°C -3.6°F-19.8°C 58% 1.0 mph SE1.6 kmh SE 2.0 mph3.2 kmh 30.42 in1030.1 mb 0.00 in0.0 mm 0.00 in0.0 mm 0.00 in0.0 mm
02:29 AM 8.3°F-13.2°C -3.6°F-19.8°C 58% Calm Calm 1.0 mph1.6 kmh 30.42 in1030.1 mb 0.00 in0.0 mm 0.00 in0.0 mm 0.00 in0.0 mm
02:34 AM 8.3°F-13.2°C -3.6°F-19.8°C 58% Calm Calm -- 30.42 in1030.1 mb 0.00 in0.0 mm 0.00 in0.0 mm 0.00 in0.0 mm
02:39 AM 8.3°F-13.2°C -3.6°F-19.8°C 58% Calm Calm 3.0 mph4.8 kmh 30.42 in1030.1 mb 0.00 in0.0 mm 0.00 in0.0 mm 0.00 in0.0 mm
02:44 AM 8.4°F-13.1°C -3.5°F-19.7°C 58% Calm Calm -- 30.42 in1030.1 mb 0.00 in0.0 mm 0.00 in0.0 mm 0.00 in0.0 mm
02:49 AM 8.4°F-13.1°C -3.1°F-19.5°C 59% Calm Calm -- 30.41 in1029.8 mb 0.00 in0.0 mm 0.00 in0.0 mm 0.00 in0.0 mm
02:54 AM 8.4°F-13.1°C -3.1°F-19.5°C 59% Calm Calm -- 30.41 in1029.8 mb 0.00 in0.0 mm 0.00 in0.0 mm 0.00 in0.0 mm
02:59 AM 8.4°F-13.1°C -3.1°F-19.5°C 59% Calm Calm -- 30.41 in1029.8 mb 0.00 in0.0 mm 0.00 in0.0 mm 0.00 in0.0 mm
03:04 AM 8.4°F-13.1°C -2.7°F-19.3°C 60% Calm Calm -- 30.41 in1029.8 mb 0.00 in0.0 mm 0.00 in0.0 mm 0.00 in0.0 mm
03:09 AM 8.4°F-13.1°C -2.7°F-19.3°C 60% Calm Calm -- 30.41 in1029.8 mb 0.00 in0.0 mm 0.00 in0.0 mm 0.00 in0.0 mm
03:14 AM 8.5°F-13.1°C -2.6°F-19.2°C 60% Calm Calm -- 30.42 in1030.1 mb 0.00 in0.0 mm 0.00 in0.0 mm 0.00 in0.0 mm
03:19 AM 8.5°F-13.1°C -2.6°F-19.2°C 60% Calm Calm -- 30.42 in1030.1 mb 0.00 in0.0 mm 0.00 in0.0 mm 0.00 in0.0 mm
03:24 AM 8.5°F-13.1°C -2.3°F-19.1°C 61% Calm Calm -- 30.42 in1030.1 mb 0.00 in0.0 mm 0.00 in0.0 mm 0.00 in0.0 mm
03:29 AM 8.6°F-13.0°C -2.2°F-19.0°C 61% Calm Calm -- 30.41 in1029.8 mb 0.00 in0.0 mm 0.00 in0.0 mm 0.00 in0.0 mm
03:34 AM 8.6°F-13.0°C -2.2°F-19.0°C 61% Calm Calm -- 30.42 in1030.1 mb 0.00 in0.0 mm 0.00 in0.0 mm 0.00 in0.0 mm
03:39 AM 8.6°F-13.0°C -1.8°F-18.8°C 62% Calm Calm -- 30.41 in1029.8 mb 0.00 in0.0 mm 0.00 in0.0 mm 0.00 in0.0 mm
03:44 AM 8.6°F-13.0°C -1.8°F-18.8°C 62% Calm Calm -- 30.41 in1029.8 mb 0.00 in0.0 mm 0.00 in0.0 mm 0.00 in0.0 mm
03:49 AM 8.6°F-13.0°C -1.5°F-18.6°C 63% Calm Calm -- 30.41 in1029.8 mb 0.00 in0.0 mm 0.00 in0.0 mm 0.00 in0.0 mm
03:54 AM 8.6°F-13.0°C -1.5°F-18.6°C 63% Calm Calm -- 30.41 in1029.8 mb 0.00 in0.0 mm 0.00 in0.0 mm 0.00 in0.0 mm
03:59 AM 8.7°F-12.9°C -1.4°F-18.6°C 63% Calm Calm -- 30.41 in1029.8 mb 0.00 in0.0 mm 0.00 in0.0 mm 0.00 in0.0 mm
04:04 AM 8.7°F-12.9°C -1.0°F-18.3°C 64% Calm Calm -- 30.41 in1029.8 mb 0.00 in0.0 mm 0.00 in0.0 mm 0.00 in0.0 mm
04:09 AM 8.6°F-13.0°C -1.1°F-18.4°C 64% Calm Calm -- 30.41 in1029.8 mb 0.00 in0.0 mm 0.00 in0.0 mm 0.00 in0.0 mm
04:14 AM 8.6°F-13.0°C -0.8°F-18.2°C 65% Calm Calm -- 30.41 in1029.8 mb 0.00 in0.0 mm 0.00 in0.0 mm 0.00 in0.0 mm
04:19 AM 8.6°F-13.0°C -0.8°F-18.2°C 65% Calm Calm -- 30.41 in1029.8 mb 0.00 in0.0 mm 0.00 in0.0 mm 0.00 in0.0 mm
04:24 AM 8.5°F-13.1°C -0.6°F-18.1°C 66% Calm Calm -- 30.40 in1029.5 mb 0.00 in0.0 mm 0.00 in0.0 mm 0.00 in0.0 mm
04:29 AM 8.5°F-13.1°C -0.6°F-18.1°C 66% Calm Calm -- 30.40 in1029.5 mb 0.00 in0.0 mm 0.00 in0.0 mm 0.00 in0.0 mm
04:34 AM 8.5°F-13.1°C -0.2°F-17.9°C 67% Calm Calm -- 30.40 in1029.5 mb 0.00 in0.0 mm 0.00 in0.0 mm 0.00 in0.0 mm
04:39 AM 8.4°F-13.1°C -0.3°F-17.9°C 67% Calm Calm -- 30.39 in1029.1 mb 0.00 in0.0 mm 0.00 in0.0 mm 0.00 in0.0 mm
04:44 AM 8.4°F-13.1°C 0.0°F-17.8°C 68% Calm Calm -- 30.40 in1029.5 mb 0.00 in0.0 mm 0.00 in0.0 mm 0.01 in0.3 mm
04:49 AM 8.4°F-13.1°C 0.0°F-17.8°C 68% Calm Calm -- 30.40 in1029.5 mb 0.00 in0.0 mm 0.00 in0.0 mm 0.01 in0.3 mm
04:54 AM 8.4°F-13.1°C 0.3°F-17.6°C 69% Calm Calm -- 30.39 in1029.1 mb 0.00 in0.0 mm 0.00 in0.0 mm 0.01 in0.3 mm
04:59 AM 8.4°F-13.1°C 0.3°F-17.6°C 69% Calm Calm -- 30.39 in1029.1 mb 0.00 in0.0 mm 0.00 in0.0 mm 0.01 in0.3 mm
05:04 AM 8.4°F-13.1°C 0.3°F-17.6°C 69% Calm Calm -- 30.39 in1029.1 mb 0.00 in0.0 mm 0.00 in0.0 mm 0.01 in0.3 mm
05:09 AM 8.4°F-13.1°C 0.3°F-17.6°C 69% Calm Calm -- 30.40 in1029.5 mb 0.00 in0.0 mm 0.00 in0.0 mm 0.01 in0.3 mm
05:14 AM 8.4°F-13.1°C 0.6°F-17.4°C 70% Calm Calm -- 30.39 in1029.1 mb 0.00 in0.0 mm 0.00 in0.0 mm 0.01 in0.3 mm
05:19 AM 8.4°F-13.1°C 0.6°F-17.4°C 70% Calm Calm -- 30.40 in1029.5 mb 0.00 in0.0 mm 0.00 in0.0 mm 0.01 in0.3 mm
05:24 AM 8.4°F-13.1°C 0.6°F-17.4°C 70% Calm Calm -- 30.40 in1029.5 mb 0.00 in0.0 mm 0.00 in0.0 mm 0.01 in0.3 mm
05:29 AM 8.4°F-13.1°C 0.6°F-17.4°C 70% 3.0 mph ESE4.8 kmh ESE 3.0 mph4.8 kmh 30.40 in1029.5 mb 0.00 in0.0 mm 0.00 in0.0 mm 0.01 in0.3 mm
05:34 AM 8.4°F-13.1°C 0.9°F-17.3°C 71% Calm Calm -- 30.40 in1029.5 mb 0.00 in0.0 mm 0.00 in0.0 mm 0.01 in0.3 mm
05:39 AM 8.4°F-13.1°C 0.9°F-17.3°C 71% Calm Calm -- 30.40 in1029.5 mb 0.00 in0.0 mm 0.00 in0.0 mm 0.01 in0.3 mm
05:44 AM 8.4°F-13.1°C 0.9°F-17.3°C 71% Calm Calm -- 30.41 in1029.8 mb 0.00 in0.0 mm 0.00 in0.0 mm 0.01 in0.3 mm
05:49 AM 8.4°F-13.1°C 0.9°F-17.3°C 71% Calm Calm -- 30.41 in1029.8 mb 0.00 in0.0 mm 0.00 in0.0 mm 0.01 in0.3 mm
05:54 AM 8.4°F-13.1°C 0.9°F-17.3°C 71% Calm Calm -- 30.41 in1029.8 mb 0.00 in0.0 mm 0.00 in0.0 mm 0.01 in0.3 mm
05:59 AM 8.4°F-13.1°C 0.9°F-17.3°C 71% Calm Calm -- 30.41 in1029.8 mb 0.00 in0.0 mm 0.00 in0.0 mm 0.01 in0.3 mm
06:04 AM 8.5°F-13.1°C 1.0°F-17.2°C 71% Calm Calm -- 30.41 in1029.8 mb 0.00 in0.0 mm 0.00 in0.0 mm 0.01 in0.3 mm
06:09 AM 8.5°F-13.1°C 1.3°F-17.1°C 72% Calm Calm -- 30.40 in1029.5 mb 0.00 in0.0 mm 0.00 in0.0 mm 0.01 in0.3 mm
06:14 AM 8.5°F-13.1°C 1.3°F-17.1°C 72% Calm Calm -- 30.40 in1029.5 mb 0.00 in0.0 mm 0.00 in0.0 mm 0.01 in0.3 mm
06:19 AM 8.6°F-13.0°C 1.4°F-17.0°C 72% Calm Calm -- 30.41 in1029.8 mb 0.00 in0.0 mm 0.00 in0.0 mm 0.01 in0.3 mm
06:24 AM 8.6°F-13.0°C 1.4°F-17.0°C 72% Calm Calm -- 30.41 in1029.8 mb 0.00 in0.0 mm 0.00 in0.0 mm 0.01 in0.3 mm
06:29 AM 8.6°F-13.0°C 1.4°F-17.0°C 72% Calm Calm -- 30.41 in1029.8 mb 0.00 in0.0 mm 0.00 in0.0 mm 0.01 in0.3 mm
06:34 AM 8.7°F-12.9°C 1.5°F-16.9°C 72% Calm Calm -- 30.41 in1029.8 mb 0.00 in0.0 mm 0.00 in0.0 mm 0.01 in0.3 mm
06:39 AM 8.7°F-12.9°C 1.5°F-16.9°C 72% Calm Calm -- 30.41 in1029.8 mb 0.00 in0.0 mm 0.00 in0.0 mm 0.01 in0.3 mm
06:44 AM 8.8°F-12.9°C 1.6°F-16.9°C 72% Calm Calm -- 30.41 in1029.8 mb 0.00 in0.0 mm 0.00 in0.0 mm 0.01 in0.3 mm
06:49 AM 8.8°F-12.9°C 1.9°F-16.7°C 73% Calm Calm -- 30.41 in1029.8 mb 0.00 in0.0 mm 0.00 in0.0 mm 0.01 in0.3 mm
06:54 AM 8.8°F-12.9°C 1.9°F-16.7°C 73% Calm Calm -- 30.41 in1029.8 mb 0.00 in0.0 mm 0.00 in0.0 mm 0.01 in0.3 mm
06:59 AM 8.8°F-12.9°C 1.9°F-16.7°C 73% Calm Calm -- 30.40 in1029.5 mb 0.00 in0.0 mm 0.00 in0.0 mm 0.01 in0.3 mm
07:04 AM 8.9°F-12.8°C 2.0°F-16.7°C 73% Calm Calm -- 30.41 in1029.8 mb 0.00 in0.0 mm 0.00 in0.0 mm 0.02 in0.5 mm
07:09 AM 8.9°F-12.8°C 2.0°F-16.7°C 73% Calm Calm 3.0 mph4.8 kmh 30.41 in1029.8 mb 0.00 in0.0 mm 0.00 in0.0 mm 0.02 in0.5 mm
07:14 AM 8.9°F-12.8°C 2.0°F-16.7°C 73% Calm Calm -- 30.41 in1029.8 mb 0.00 in0.0 mm 0.00 in0.0 mm 0.02 in0.5 mm
07:19 AM 9.0°F-12.8°C 2.1°F-16.6°C 73% Calm Calm -- 30.41 in1029.8 mb 0.00 in0.0 mm 0.00 in0.0 mm 0.02 in0.5 mm
07:24 AM 9.0°F-12.8°C 2.1°F-16.6°C 73% Calm Calm -- 30.41 in1029.8 mb 0.00 in0.0 mm 0.00 in0.0 mm 0.02 in0.5 mm
07:29 AM 9.0°F-12.8°C 2.1°F-16.6°C 73% Calm Calm -- 30.41 in1029.8 mb 0.00 in0.0 mm 0.00 in0.0 mm 0.02 in0.5 mm
07:34 AM 9.0°F-12.8°C 2.1°F-16.6°C 73% Calm Calm -- 30.41 in1029.8 mb 0.00 in0.0 mm 0.00 in0.0 mm 0.02 in0.5 mm
07:39 AM 9.0°F-12.8°C 2.4°F-16.4°C 74% Calm Calm -- 30.41 in1029.8 mb 0.00 in0.0 mm 0.00 in0.0 mm 0.02 in0.5 mm
07:44 AM 9.0°F-12.8°C 2.4°F-16.4°C 74% Calm Calm -- 30.40 in1029.5 mb 0.00 in0.0 mm 0.00 in0.0 mm 0.02 in0.5 mm
07:49 AM 9.0°F-12.8°C 2.4°F-16.4°C 74% Calm Calm -- 30.41 in1029.8 mb 0.00 in0.0 mm 0.00 in0.0 mm 0.02 in0.5 mm
07:54 AM 9.1°F-12.7°C 2.5°F-16.4°C 74% Calm Calm -- 30.41 in1029.8 mb 0.00 in0.0 mm 0.00 in0.0 mm 0.02 in0.5 mm
07:59 AM 9.1°F-12.7°C 2.5°F-16.4°C 74% Calm Calm 4.0 mph6.4 kmh 30.40 in1029.5 mb 0.00 in0.0 mm 0.00 in0.0 mm 0.02 in0.5 mm
08:04 AM 9.2°F-12.7°C 2.6°F-16.3°C 74% 3.0 mph ESE4.8 kmh ESE 4.0 mph6.4 kmh 30.40 in1029.5 mb 0.00 in0.0 mm 0.00 in0.0 mm 0.02 in0.5 mm
08:09 AM 9.2°F-12.7°C 2.6°F-16.3°C 74% Calm Calm 4.0 mph6.4 kmh 30.40 in1029.5 mb 0.00 in0.0 mm 0.00 in0.0 mm 0.02 in0.5 mm
08:14 AM 9.2°F-12.7°C 2.6°F-16.3°C 74% Calm Calm 2.0 mph3.2 kmh 30.41 in1029.8 mb 0.00 in0.0 mm 0.00 in0.0 mm 0.02 in0.5 mm
08:19 AM 9.3°F-12.6°C 2.7°F-16.3°C 74% Calm Calm -- 30.41 in1029.8 mb 0.00 in0.0 mm 0.00 in0.0 mm 0.02 in0.5 mm
08:24 AM 9.3°F-12.6°C 2.7°F-16.3°C 74% 1.0 mph E1.6 kmh E 3.0 mph4.8 kmh 30.41 in1029.8 mb 0.00 in0.0 mm 0.00 in0.0 mm 0.02 in0.5 mm
08:29 AM 9.4°F-12.6°C 3.1°F-16.1°C 75% Calm Calm 3.0 mph4.8 kmh 30.41 in1029.8 mb 0.00 in0.0 mm 0.00 in0.0 mm 0.02 in0.5 mm
08:34 AM 9.5°F-12.5°C 2.9°F-16.2°C 74% 2.0 mph E3.2 kmh E 2.0 mph3.2 kmh 30.41 in1029.8 mb 0.00 in0.0 mm 0.00 in0.0 mm 0.02 in0.5 mm
08:39 AM 9.6°F-12.4°C 3.3°F-15.9°C 75% 2.0 mph E3.2 kmh E 4.0 mph6.4 kmh 30.41 in1029.8 mb 0.00 in0.0 mm 0.00 in0.0 mm 0.02 in0.5 mm
08:44 AM 9.7°F-12.4°C 3.4°F-15.9°C 75% 2.0 mph E3.2 kmh E 5.0 mph8.0 kmh 30.41 in1029.8 mb 0.00 in0.0 mm 0.00 in0.0 mm 0.02 in0.5 mm
08:49 AM 9.8°F-12.3°C 3.5°F-15.8°C 75% 1.0 mph E1.6 kmh E 5.0 mph8.0 kmh 30.41 in1029.8 mb 0.00 in0.0 mm 0.00 in0.0 mm 0.02 in0.5 mm
08:54 AM 9.9°F-12.3°C 3.6°F-15.8°C 75% Calm Calm 3.0 mph4.8 kmh 30.42 in1030.1 mb 0.00 in0.0 mm 0.00 in0.0 mm 0.03 in0.8 mm
08:59 AM 10.2°F-12.1°C 3.9°F-15.6°C 75% 2.0 mph E3.2 kmh E 5.0 mph8.0 kmh 30.42 in1030.1 mb 0.00 in0.0 mm 0.00 in0.0 mm 0.03 in0.8 mm
09:04 AM 10.4°F-12.0°C 4.1°F-15.5°C 75% 3.0 mph E4.8 kmh E 5.0 mph8.0 kmh 30.42 in1030.1 mb 0.00 in0.0 mm 0.00 in0.0 mm 0.03 in0.8 mm
09:09 AM 10.6°F-11.9°C 4.3°F-15.4°C 75% 1.0 mph E1.6 kmh E 5.0 mph8.0 kmh 30.42 in1030.1 mb 0.00 in0.0 mm 0.00 in0.0 mm 0.03 in0.8 mm
09:14 AM 10.8°F-11.8°C 4.5°F-15.3°C 75% Calm Calm 2.0 mph3.2 kmh 30.42 in1030.1 mb 0.00 in0.0 mm 0.00 in0.0 mm 0.03 in0.8 mm
09:19 AM 11.0°F-11.7°C 4.7°F-15.2°C 75% 1.0 mph E1.6 kmh E 3.0 mph4.8 kmh 30.42 in1030.1 mb 0.00 in0.0 mm 0.00 in0.0 mm 0.03 in0.8 mm
09:24 AM 11.1°F-11.6°C 4.7°F-15.2°C 75% 1.0 mph E1.6 kmh E 5.0 mph8.0 kmh 30.42 in1030.1 mb 0.00 in0.0 mm 0.00 in0.0 mm 0.03 in0.8 mm
09:29 AM 11.2°F-11.6°C 4.8°F-15.1°C 75% 1.0 mph E1.6 kmh E 5.0 mph8.0 kmh 30.42 in1030.1 mb 0.00 in0.0 mm 0.00 in0.0 mm 0.03 in0.8 mm
09:34 AM 11.5°F-11.4°C 4.8°F-15.1°C 74% 2.0 mph E3.2 kmh E 5.0 mph8.0 kmh 30.43 in1030.5 mb 0.00 in0.0 mm 0.00 in0.0 mm 0.03 in0.8 mm
09:39 AM 11.6°F-11.3°C 4.9°F-15.1°C 74% 2.0 mph E3.2 kmh E 5.0 mph8.0 kmh 30.42 in1030.1 mb 0.00 in0.0 mm 0.00 in0.0 mm 0.03 in0.8 mm
09:44 AM 11.7°F-11.3°C 4.7°F-15.2°C 73% 1.0 mph E1.6 kmh E 1.0 mph1.6 kmh 30.43 in1030.5 mb 0.00 in0.0 mm 0.00 in0.0 mm 0.03 in0.8 mm
09:49 AM 11.9°F-11.2°C 4.6°F-15.2°C 72% 1.0 mph E1.6 kmh E 3.0 mph4.8 kmh 30.43 in1030.5 mb 0.00 in0.0 mm 0.00 in0.0 mm 0.03 in0.8 mm
09:54 AM 12.1°F-11.1°C 4.8°F-15.1°C 72% 1.0 mph E1.6 kmh E 3.0 mph4.8 kmh 30.43 in1030.5 mb 0.00 in0.0 mm 0.00 in0.0 mm 0.03 in0.8 mm
09:59 AM 12.2°F-11.0°C 4.9°F-15.1°C 72% Calm Calm -- 30.43 in1030.5 mb 0.00 in0.0 mm 0.00 in0.0 mm 0.03 in0.8 mm
10:04 AM 12.2°F-11.0°C 4.6°F-15.2°C 71% Calm Calm -- 30.43 in1030.5 mb 0.00 in0.0 mm 0.00 in0.0 mm 0.03 in0.8 mm
10:09 AM 12.2°F-11.0°C 4.3°F-15.4°C 70% Calm Calm 3.0 mph4.8 kmh 30.43 in1030.5 mb 0.00 in0.0 mm 0.00 in0.0 mm 0.03 in0.8 mm
10:14 AM 12.2°F-11.0°C 4.3°F-15.4°C 70% 2.0 mph E3.2 kmh E 2.0 mph3.2 kmh 30.43 in1030.5 mb 0.00 in0.0 mm 0.00 in0.0 mm 0.03 in0.8 mm
10:19 AM 12.3°F-10.9°C 4.4°F-15.3°C 70% Calm Calm -- 30.43 in1030.5 mb 0.00 in0.0 mm 0.00 in0.0 mm 0.03 in0.8 mm
10:24 AM 12.5°F-10.8°C 4.6°F-15.2°C 70% Calm Calm -- 30.43 in1030.5 mb 0.00 in0.0 mm 0.00 in0.0 mm 0.03 in0.8 mm
10:29 AM 12.6°F-10.8°C 4.3°F-15.4°C 69% Calm Calm 2.0 mph3.2 kmh 30.43 in1030.5 mb 0.00 in0.0 mm 0.00 in0.0 mm 0.03 in0.8 mm
10:34 AM 12.7°F-10.7°C 4.4°F-15.3°C 69% 3.0 mph E4.8 kmh E 3.0 mph4.8 kmh 30.43 in1030.5 mb 0.00 in0.0 mm 0.00 in0.0 mm 0.03 in0.8 mm
10:39 AM 12.9°F-10.6°C 4.6°F-15.2°C 69% 1.0 mph E1.6 kmh E 3.0 mph4.8 kmh 30.43 in1030.5 mb 0.00 in0.0 mm 0.00 in0.0 mm 0.03 in0.8 mm
10:44 AM 13.0°F-10.6°C 4.4°F-15.3°C 68% Calm Calm -- 30.43 in1030.5 mb 0.00 in0.0 mm 0.00 in0.0 mm 0.03 in0.8 mm
10:49 AM 13.2°F-10.4°C 4.9°F-15.1°C 69% Calm Calm 1.0 mph1.6 kmh 30.43 in1030.5 mb 0.00 in0.0 mm 0.00 in0.0 mm 0.03 in0.8 mm
10:54 AM 13.1°F-10.5°C 4.5°F-15.3°C 68% Calm Calm -- 30.43 in1030.5 mb 0.00 in0.0 mm 0.00 in0.0 mm 0.03 in0.8 mm
10:59 AM 13.0°F-10.6°C 4.1°F-15.5°C 67% Calm Calm -- 30.43 in1030.5 mb 0.00 in0.0 mm 0.00 in0.0 mm 0.03 in0.8 mm
11:04 AM 13.1°F-10.5°C 4.1°F-15.5°C 67% Calm Calm -- 30.43 in1030.5 mb 0.00 in0.0 mm 0.00 in0.0 mm 0.03 in0.8 mm
11:09 AM 13.3°F-10.4°C 4.7°F-15.2°C 68% Calm Calm -- 30.43 in1030.5 mb 0.00 in0.0 mm 0.00 in0.0 mm 0.03 in0.8 mm
11:14 AM 13.4°F-10.3°C 4.4°F-15.3°C 67% Calm Calm -- 30.43 in1030.5 mb 0.00 in0.0 mm 0.00 in0.0 mm 0.03 in0.8 mm
11:19 AM 13.7°F-10.2°C 5.1°F-14.9°C 68% Calm Calm -- 30.43 in1030.5 mb 0.00 in0.0 mm 0.00 in0.0 mm 0.03 in0.8 mm
11:24 AM 13.6°F-10.2°C 4.6°F-15.2°C 67% Calm Calm -- 30.43 in1030.5 mb 0.00 in0.0 mm 0.00 in0.0 mm 0.03 in0.8 mm
11:29 AM 13.7°F-10.2°C 4.7°F-15.2°C 67% Calm Calm 2.0 mph3.2 kmh 30.43 in1030.5 mb 0.00 in0.0 mm 0.00 in0.0 mm 0.03 in0.8 mm
11:34 AM 13.7°F-10.2°C 4.7°F-15.2°C 67% Calm Calm -- 30.43 in1030.5 mb 0.00 in0.0 mm 0.00 in0.0 mm 0.03 in0.8 mm
11:39 AM 13.6°F-10.2°C 4.6°F-15.2°C 67% Calm Calm -- 30.43 in1030.5 mb 0.00 in0.0 mm 0.00 in0.0 mm 0.03 in0.8 mm
11:44 AM 13.7°F-10.2°C 4.7°F-15.2°C 67% Calm Calm -- 30.43 in1030.5 mb 0.00 in0.0 mm 0.00 in0.0 mm 0.03 in0.8 mm
11:49 AM 13.9°F-10.1°C 4.9°F-15.1°C 67% Calm Calm -- 30.43 in1030.5 mb 0.00 in0.0 mm 0.00 in0.0 mm 0.03 in0.8 mm
11:54 AM 14.2°F-9.9°C 5.2°F-14.9°C 67% Calm Calm -- 30.43 in1030.5 mb 0.00 in0.0 mm 0.00 in0.0 mm 0.03 in0.8 mm
11:59 AM 14.3°F-9.8°C 5.0°F-15.0°C 66% Calm Calm -- 30.43 in1030.5 mb 0.00 in0.0 mm 0.00 in0.0 mm 0.03 in0.8 mm
12:04 PM 14.6°F-9.7°C 5.2°F-14.9°C 66% Calm Calm -- 30.43 in1030.5 mb 0.00 in0.0 mm 0.00 in0.0 mm 0.03 in0.8 mm
12:09 PM 14.9°F-9.5°C 5.9°F-14.5°C 67% Calm Calm -- 30.43 in1030.5 mb 0.00 in0.0 mm 0.00 in0.0 mm 0.03 in0.8 mm
12:14 PM 15.0°F-9.4°C 5.6°F-14.7°C 66% Calm Calm -- 30.42 in1030.1 mb 0.00 in0.0 mm 0.00 in0.0 mm 0.03 in0.8 mm
12:19 PM 14.9°F-9.5°C 5.5°F-14.7°C 66% Calm Calm -- 30.42 in1030.1 mb 0.00 in0.0 mm 0.00 in0.0 mm 0.03 in0.8 mm
12:24 PM 14.9°F-9.5°C 5.5°F-14.7°C 66% Calm Calm -- 30.42 in1030.1 mb 0.00 in0.0 mm 0.00 in0.0 mm 0.03 in0.8 mm
12:29 PM 14.7°F-9.6°C 5.0°F-15.0°C 65% Calm Calm -- 30.42 in1030.1 mb 0.00 in0.0 mm 0.00 in0.0 mm 0.03 in0.8 mm
12:34 PM 14.9°F-9.5°C 5.2°F-14.9°C 65% Calm Calm -- 30.42 in1030.1 mb 0.00 in0.0 mm 0.00 in0.0 mm 0.03 in0.8 mm
12:39 PM 14.9°F-9.5°C 5.2°F-14.9°C 65% Calm Calm -- 30.42 in1030.1 mb 0.00 in0.0 mm 0.00 in0.0 mm 0.03 in0.8 mm
12:44 PM 15.1°F-9.4°C 5.4°F-14.8°C 65% Calm Calm -- 30.41 in1029.8 mb 0.00 in0.0 mm 0.00 in0.0 mm 0.03 in0.8 mm
12:49 PM 15.2°F-9.3°C 5.1°F-14.9°C 64% 2.0 mph S3.2 kmh S 4.0 mph6.4 kmh 30.41 in1029.8 mb 0.00 in0.0 mm 0.00 in0.0 mm 0.03 in0.8 mm
12:54 PM 15.6°F-9.1°C 5.9°F-14.5°C 65% 2.0 mph S3.2 kmh S 4.0 mph6.4 kmh 30.41 in1029.8 mb 0.00 in0.0 mm 0.00 in0.0 mm 0.03 in0.8 mm
12:59 PM 15.5°F-9.2°C 5.4°F-14.8°C 64% 2.0 mph SSW3.2 kmh SSW 4.0 mph6.4 kmh 30.41 in1029.8 mb 0.00 in0.0 mm 0.00 in0.0 mm 0.03 in0.8 mm
01:04 PM 16.0°F-8.9°C 6.2°F-14.3°C 65% 2.0 mph S3.2 kmh S 4.0 mph6.4 kmh 30.41 in1029.8 mb 0.00 in0.0 mm 0.00 in0.0 mm 0.03 in0.8 mm
01:09 PM 15.6°F-9.1°C 5.1°F-14.9°C 63% 3.0 mph S4.8 kmh S 5.0 mph8.0 kmh 30.41 in1029.8 mb 0.00 in0.0 mm 0.00 in0.0 mm 0.03 in0.8 mm
01:14 PM 15.6°F-9.1°C 5.1°F-14.9°C 63% 1.0 mph SSW1.6 kmh SSW 5.0 mph8.0 kmh 30.40 in1029.5 mb 0.00 in0.0 mm 0.00 in0.0 mm 0.03 in0.8 mm
01:19 PM 15.7°F-9.1°C 5.2°F-14.9°C 63% 3.0 mph SW4.8 kmh SW 5.0 mph8.0 kmh 30.40 in1029.5 mb 0.00 in0.0 mm 0.00 in0.0 mm 0.03 in0.8 mm
01:24 PM 16.1°F-8.8°C 5.6°F-14.7°C 63% Calm Calm 5.0 mph8.0 kmh 30.40 in1029.5 mb 0.00 in0.0 mm 0.00 in0.0 mm 0.03 in0.8 mm
01:29 PM 16.2°F-8.8°C 5.7°F-14.6°C 63% 3.0 mph SSW4.8 kmh SSW 4.0 mph6.4 kmh 30.40 in1029.5 mb 0.00 in0.0 mm 0.00 in0.0 mm 0.03 in0.8 mm
01:34 PM 16.7°F-8.5°C 6.2°F-14.3°C 63% Calm Calm 1.0 mph1.6 kmh 30.40 in1029.5 mb 0.00 in0.0 mm 0.00 in0.0 mm 0.03 in0.8 mm
01:39 PM 16.2°F-8.8°C 5.4°F-14.8°C 62% Calm Calm -- 30.40 in1029.5 mb 0.00 in0.0 mm 0.00 in0.0 mm 0.03 in0.8 mm
01:44 PM 16.2°F-8.8°C 5.7°F-14.6°C 63% Calm Calm -- 30.40 in1029.5 mb 0.00 in0.0 mm 0.00 in0.0 mm 0.03 in0.8 mm
01:49 PM 16.0°F-8.9°C 5.5°F-14.7°C 63% Calm Calm -- 30.40 in1029.5 mb 0.00 in0.0 mm 0.00 in0.0 mm 0.03 in0.8 mm
01:54 PM 16.0°F-8.9°C 5.5°F-14.7°C 63% Calm Calm -- 30.40 in1029.5 mb 0.00 in0.0 mm 0.00 in0.0 mm 0.03 in0.8 mm
01:59 PM 16.7°F-8.5°C 6.5°F-14.2°C 64% 1.0 mph WSW1.6 kmh WSW 1.0 mph1.6 kmh 30.40 in1029.5 mb 0.00 in0.0 mm 0.00 in0.0 mm 0.03 in0.8 mm
02:04 PM 17.1°F-8.3°C 6.9°F-13.9°C 64% Calm Calm 1.0 mph1.6 kmh 30.40 in1029.5 mb 0.00 in0.0 mm 0.00 in0.0 mm 0.03 in0.8 mm
02:09 PM 17.2°F-8.2°C 7.0°F-13.9°C 64% Calm Calm -- 30.39 in1029.1 mb 0.00 in0.0 mm 0.00 in0.0 mm 0.03 in0.8 mm
02:14 PM 17.5°F-8.1°C 7.7°F-13.5°C 65% 3.0 mph ENE4.8 kmh ENE 5.0 mph8.0 kmh 30.39 in1029.1 mb 0.00 in0.0 mm 0.00 in0.0 mm 0.03 in0.8 mm
02:19 PM 17.4°F-8.1°C 7.6°F-13.6°C 65% 3.0 mph NE4.8 kmh NE 6.0 mph9.7 kmh 30.39 in1029.1 mb 0.00 in0.0 mm 0.00 in0.0 mm 0.03 in0.8 mm
02:24 PM 17.8°F-7.9°C 8.6°F-13.0°C 67% 3.0 mph NE4.8 kmh NE 7.0 mph11.3 kmh 30.39 in1029.1 mb 0.00 in0.0 mm 0.00 in0.0 mm 0.03 in0.8 mm
02:29 PM 17.3°F-8.2°C 7.5°F-13.6°C 65% 6.0 mph N9.7 kmh N 7.0 mph11.3 kmh 30.39 in1029.1 mb 0.00 in0.0 mm 0.00 in0.0 mm 0.03 in0.8 mm
02:34 PM 16.7°F-8.5°C 7.2°F-13.8°C 66% Calm Calm 7.0 mph11.3 kmh 30.39 in1029.1 mb 0.00 in0.0 mm 0.00 in0.0 mm 0.03 in0.8 mm
02:39 PM 17.0°F-8.3°C 7.9°F-13.4°C 67% 5.0 mph N8.0 kmh N 7.0 mph11.3 kmh 30.39 in1029.1 mb 0.00 in0.0 mm 0.00 in0.0 mm 0.03 in0.8 mm
02:44 PM 17.2°F-8.2°C 7.7°F-13.5°C 66% 3.0 mph NNW4.8 kmh NNW 6.0 mph9.7 kmh 30.39 in1029.1 mb 0.00 in0.0 mm 0.00 in0.0 mm 0.03 in0.8 mm
02:49 PM 17.1°F-8.3°C 7.6°F-13.6°C 66% Calm Calm 6.0 mph9.7 kmh 30.39 in1029.1 mb 0.00 in0.0 mm 0.00 in0.0 mm 0.03 in0.8 mm
02:54 PM 17.2°F-8.2°C 8.1°F-13.3°C 67% 2.0 mph NE3.2 kmh NE 6.0 mph9.7 kmh 30.39 in1029.1 mb 0.00 in0.0 mm 0.00 in0.0 mm 0.03 in0.8 mm
02:59 PM 17.2°F-8.2°C 8.1°F-13.3°C 67% 3.0 mph ENE4.8 kmh ENE 7.0 mph11.3 kmh 30.39 in1029.1 mb 0.00 in0.0 mm 0.00 in0.0 mm 0.03 in0.8 mm
03:04 PM 17.2°F-8.2°C 7.7°F-13.5°C 66% Calm Calm 7.0 mph11.3 kmh 30.40 in1029.5 mb 0.00 in0.0 mm 0.00 in0.0 mm 0.03 in0.8 mm
03:09 PM 17.0°F-8.3°C 7.5°F-13.6°C 66% 1.0 mph NE1.6 kmh NE 7.0 mph11.3 kmh 30.39 in1029.1 mb 0.00 in0.0 mm 0.00 in0.0 mm 0.03 in0.8 mm
03:14 PM 16.6°F-8.6°C 7.1°F-13.8°C 66% Calm Calm 7.0 mph11.3 kmh 30.40 in1029.5 mb 0.00 in0.0 mm 0.00 in0.0 mm 0.03 in0.8 mm
03:19 PM 16.8°F-8.4°C 7.7°F-13.5°C 67% 3.0 mph NNW4.8 kmh NNW 4.0 mph6.4 kmh 30.40 in1029.5 mb 0.00 in0.0 mm 0.00 in0.0 mm 0.03 in0.8 mm
03:24 PM 16.5°F-8.6°C 7.1°F-13.8°C 66% 2.0 mph WNW3.2 kmh WNW 5.0 mph8.0 kmh 30.40 in1029.5 mb 0.00 in0.0 mm 0.00 in0.0 mm 0.03 in0.8 mm
03:29 PM 16.2°F-8.8°C 6.8°F-14.0°C 66% 3.0 mph NNW4.8 kmh NNW 6.0 mph9.7 kmh 30.40 in1029.5 mb 0.00 in0.0 mm 0.00 in0.0 mm 0.03 in0.8 mm
03:34 PM 16.1°F-8.8°C 6.7°F-14.1°C 66% 3.0 mph NNW4.8 kmh NNW 7.0 mph11.3 kmh 30.40 in1029.5 mb 0.00 in0.0 mm 0.00 in0.0 mm 0.03 in0.8 mm
03:39 PM 16.1°F-8.8°C 7.0°F-13.9°C 67% 2.0 mph WNW3.2 kmh WNW 7.0 mph11.3 kmh 30.40 in1029.5 mb 0.00 in0.0 mm 0.00 in0.0 mm 0.03 in0.8 mm
04:34 PM 15.4°F-9.2°C 6.3°F-14.3°C 67% 2.0 mph NE3.2 kmh NE 7.0 mph11.3 kmh 30.42 in1030.1 mb 0.00 in0.0 mm 0.00 in0.0 mm 0.03 in0.8 mm
04:39 PM 15.2°F-9.3°C 6.2°F-14.3°C 67% 5.0 mph NE8.0 kmh NE 7.0 mph11.3 kmh 30.42 in1030.1 mb 0.00 in0.0 mm 0.00 in0.0 mm 0.03 in0.8 mm
04:44 PM 15.0°F-9.4°C 6.0°F-14.4°C 67% 3.0 mph NE4.8 kmh NE 7.0 mph11.3 kmh 30.42 in1030.1 mb 0.00 in0.0 mm 0.00 in0.0 mm 0.03 in0.8 mm
04:49 PM 14.9°F-9.5°C 5.9°F-14.5°C 67% 3.0 mph ENE4.8 kmh ENE 6.0 mph9.7 kmh 30.42 in1030.1 mb 0.00 in0.0 mm 0.00 in0.0 mm 0.03 in0.8 mm
04:54 PM 14.8°F-9.6°C 5.8°F-14.6°C 67% 3.0 mph NE4.8 kmh NE 6.0 mph9.7 kmh 30.42 in1030.1 mb 0.00 in0.0 mm 0.00 in0.0 mm 0.03 in0.8 mm
04:59 PM 14.7°F-9.6°C 6.0°F-14.4°C 68% 2.0 mph NE3.2 kmh NE 5.0 mph8.0 kmh 30.42 in1030.1 mb 0.00 in0.0 mm 0.00 in0.0 mm 0.03 in0.8 mm
05:04 PM 14.7°F-9.6°C 5.7°F-14.6°C 67% 2.0 mph NE3.2 kmh NE 6.0 mph9.7 kmh 30.42 in1030.1 mb 0.00 in0.0 mm 0.00 in0.0 mm 0.03 in0.8 mm
05:09 PM 14.6°F-9.7°C 5.9°F-14.5°C 68% 1.0 mph ENE1.6 kmh ENE 6.0 mph9.7 kmh 30.42 in1030.1 mb 0.00 in0.0 mm 0.00 in0.0 mm 0.03 in0.8 mm
05:14 PM 14.5°F-9.7°C 5.8°F-14.6°C 68% 4.0 mph NE6.4 kmh NE 6.0 mph9.7 kmh 30.42 in1030.1 mb 0.00 in0.0 mm 0.00 in0.0 mm 0.03 in0.8 mm
05:19 PM 14.5°F-9.7°C 5.8°F-14.6°C 68% 1.0 mph NE1.6 kmh NE 6.0 mph9.7 kmh 30.42 in1030.1 mb 0.00 in0.0 mm 0.00 in0.0 mm 0.03 in0.8 mm
05:24 PM 14.4°F-9.8°C 5.7°F-14.6°C 68% 2.0 mph NE3.2 kmh NE 5.0 mph8.0 kmh 30.42 in1030.1 mb 0.00 in0.0 mm 0.00 in0.0 mm 0.03 in0.8 mm
05:29 PM 14.3°F-9.8°C 5.6°F-14.7°C 68% 1.0 mph NE1.6 kmh NE 5.0 mph8.0 kmh 30.42 in1030.1 mb 0.00 in0.0 mm 0.00 in0.0 mm 0.03 in0.8 mm
05:34 PM 14.2°F-9.9°C 5.5°F-14.7°C 68% 5.0 mph NE8.0 kmh NE 5.0 mph8.0 kmh 30.42 in1030.1 mb 0.00 in0.0 mm 0.00 in0.0 mm 0.03 in0.8 mm
05:39 PM 14.0°F-10.0°C 5.0°F-15.0°C 67% 4.0 mph ENE6.4 kmh ENE 5.0 mph8.0 kmh 30.41 in1029.8 mb 0.00 in0.0 mm 0.00 in0.0 mm 0.03 in0.8 mm
05:44 PM 13.7°F-10.2°C 4.7°F-15.2°C 67% 3.0 mph ENE4.8 kmh ENE 5.0 mph8.0 kmh 30.41 in1029.8 mb 0.00 in0.0 mm 0.00 in0.0 mm 0.03 in0.8 mm
05:49 PM 13.4°F-10.3°C 4.8°F-15.1°C 68% 3.0 mph ENE4.8 kmh ENE 5.0 mph8.0 kmh 30.42 in1030.1 mb 0.00 in0.0 mm 0.00 in0.0 mm 0.03 in0.8 mm
05:54 PM 13.3°F-10.4°C 4.7°F-15.2°C 68% 2.0 mph ENE3.2 kmh ENE 5.0 mph8.0 kmh 30.42 in1030.1 mb 0.00 in0.0 mm 0.00 in0.0 mm 0.03 in0.8 mm
05:59 PM 13.1°F-10.5°C 4.5°F-15.3°C 68% 3.0 mph ENE4.8 kmh ENE 4.0 mph6.4 kmh 30.42 in1030.1 mb 0.00 in0.0 mm 0.00 in0.0 mm 0.03 in0.8 mm
06:04 PM 12.9°F-10.6°C 4.3°F-15.4°C 68% 2.0 mph ENE3.2 kmh ENE 4.0 mph6.4 kmh 30.42 in1030.1 mb 0.00 in0.0 mm 0.00 in0.0 mm 0.03 in0.8 mm
06:09 PM 12.7°F-10.7°C 4.1°F-15.5°C 68% 3.0 mph ENE4.8 kmh ENE 4.0 mph6.4 kmh 30.42 in1030.1 mb 0.00 in0.0 mm 0.00 in0.0 mm 0.03 in0.8 mm
06:14 PM 12.6°F-10.8°C 4.0°F-15.6°C 68% 2.0 mph ENE3.2 kmh ENE 4.0 mph6.4 kmh 30.42 in1030.1 mb 0.00 in0.0 mm 0.00 in0.0 mm 0.03 in0.8 mm
06:19 PM 12.4°F-10.9°C 3.8°F-15.7°C 68% Calm Calm 4.0 mph6.4 kmh 30.43 in1030.5 mb 0.00 in0.0 mm 0.00 in0.0 mm 0.03 in0.8 mm
06:24 PM 12.3°F-10.9°C 4.0°F-15.6°C 69% 3.0 mph ENE4.8 kmh ENE 4.0 mph6.4 kmh 30.43 in1030.5 mb 0.00 in0.0 mm 0.00 in0.0 mm 0.03 in0.8 mm
06:29 PM 12.1°F-11.1°C 3.8°F-15.7°C 69% 3.0 mph ENE4.8 kmh ENE 4.0 mph6.4 kmh 30.43 in1030.5 mb 0.00 in0.0 mm 0.00 in0.0 mm 0.03 in0.8 mm
06:34 PM 12.0°F-11.1°C 3.8°F-15.7°C 69% Calm Calm 4.0 mph6.4 kmh 30.43 in1030.5 mb 0.00 in0.0 mm 0.00 in0.0 mm 0.03 in0.8 mm
06:39 PM 11.9°F-11.2°C 3.7°F-15.7°C 69% Calm Calm -- 30.43 in1030.5 mb 0.00 in0.0 mm 0.00 in0.0 mm 0.03 in0.8 mm
06:44 PM 11.7°F-11.3°C 3.5°F-15.8°C 69% Calm Calm -- 30.43 in1030.5 mb 0.00 in0.0 mm 0.00 in0.0 mm 0.03 in0.8 mm
06:49 PM 11.5°F-11.4°C 3.3°F-15.9°C 69% Calm Calm -- 30.43 in1030.5 mb 0.00 in0.0 mm 0.00 in0.0 mm 0.03 in0.8 mm
06:54 PM 11.4°F-11.4°C 3.2°F-16.0°C 69% Calm Calm -- 30.43 in1030.5 mb 0.00 in0.0 mm 0.00 in0.0 mm 0.03 in0.8 mm
06:59 PM 11.2°F-11.6°C 3.0°F-16.1°C 69% Calm Calm -- 30.43 in1030.5 mb 0.00 in0.0 mm 0.00 in0.0 mm 0.03 in0.8 mm
07:04 PM 11.0°F-11.7°C 2.8°F-16.2°C 69% Calm Calm -- 30.43 in1030.5 mb 0.00 in0.0 mm 0.00 in0.0 mm 0.03 in0.8 mm
07:09 PM 10.8°F-11.8°C 2.6°F-16.3°C 69% Calm Calm -- 30.43 in1030.5 mb 0.00 in0.0 mm 0.00 in0.0 mm 0.03 in0.8 mm
07:14 PM 10.6°F-11.9°C 2.4°F-16.4°C 69% Calm Calm -- 30.43 in1030.5 mb 0.00 in0.0 mm 0.00 in0.0 mm 0.03 in0.8 mm
07:19 PM 10.4°F-12.0°C 2.2°F-16.6°C 69% Calm Calm -- 30.42 in1030.1 mb 0.00 in0.0 mm 0.00 in0.0 mm 0.03 in0.8 mm
07:24 PM 10.3°F-12.1°C 2.1°F-16.6°C 69% Calm Calm -- 30.42 in1030.1 mb 0.00 in0.0 mm 0.00 in0.0 mm 0.03 in0.8 mm
07:29 PM 10.2°F-12.1°C 2.3°F-16.5°C 70% 2.0 mph ENE3.2 kmh ENE 4.0 mph6.4 kmh 30.42 in1030.1 mb 0.00 in0.0 mm 0.00 in0.0 mm 0.03 in0.8 mm
07:34 PM 10.1°F-12.2°C 2.3°F-16.5°C 70% 2.0 mph ENE3.2 kmh ENE 4.0 mph6.4 kmh 30.42 in1030.1 mb 0.00 in0.0 mm 0.00 in0.0 mm 0.03 in0.8 mm
07:39 PM 10.1°F-12.2°C 2.3°F-16.5°C 70% 2.0 mph ENE3.2 kmh ENE 3.0 mph4.8 kmh 30.42 in1030.1 mb 0.00 in0.0 mm 0.00 in0.0 mm 0.03 in0.8 mm
07:44 PM 9.9°F-12.3°C 2.4°F-16.4°C 71% 1.0 mph ENE1.6 kmh ENE 3.0 mph4.8 kmh 30.42 in1030.1 mb 0.00 in0.0 mm 0.00 in0.0 mm 0.03 in0.8 mm
07:49 PM 9.9°F-12.3°C 2.4°F-16.4°C 71% Calm Calm -- 30.42 in1030.1 mb 0.00 in0.0 mm 0.00 in0.0 mm 0.03 in0.8 mm
07:54 PM 9.8°F-12.3°C 2.3°F-16.5°C 71% Calm Calm -- 30.42 in1030.1 mb 0.00 in0.0 mm 0.00 in0.0 mm 0.03 in0.8 mm
07:59 PM 9.8°F-12.3°C 2.3°F-16.5°C 71% Calm Calm -- 30.42 in1030.1 mb 0.00 in0.0 mm 0.00 in0.0 mm 0.03 in0.8 mm
08:04 PM 9.7°F-12.4°C 2.2°F-16.6°C 71% Calm Calm -- 30.42 in1030.1 mb 0.00 in0.0 mm 0.00 in0.0 mm 0.03 in0.8 mm
08:09 PM 9.6°F-12.4°C 2.1°F-16.6°C 71% Calm Calm -- 30.43 in1030.5 mb 0.00 in0.0 mm 0.00 in0.0 mm 0.03 in0.8 mm
08:14 PM 9.5°F-12.5°C 2.0°F-16.7°C 71% Calm Calm -- 30.42 in1030.1 mb 0.00 in0.0 mm 0.00 in0.0 mm 0.03 in0.8 mm
08:19 PM 9.4°F-12.6°C 1.9°F-16.7°C 71% Calm Calm -- 30.42 in1030.1 mb 0.00 in0.0 mm 0.00 in0.0 mm 0.03 in0.8 mm
08:24 PM 9.4°F-12.6°C 2.2°F-16.6°C 72% Calm Calm -- 30.42 in1030.1 mb 0.00 in0.0 mm 0.00 in0.0 mm 0.03 in0.8 mm
08:29 PM 9.3°F-12.6°C 1.8°F-16.8°C 71% Calm Calm -- 30.42 in1030.1 mb 0.00 in0.0 mm 0.00 in0.0 mm 0.03 in0.8 mm
08:34 PM 9.1°F-12.7°C 1.6°F-16.9°C 71% Calm Calm -- 30.42 in1030.1 mb 0.00 in0.0 mm 0.00 in0.0 mm 0.03 in0.8 mm
08:39 PM 9.0°F-12.8°C 1.5°F-16.9°C 71% Calm Calm -- 30.42 in1030.1 mb 0.00 in0.0 mm 0.00 in0.0 mm 0.03 in0.8 mm
08:44 PM 8.8°F-12.9°C 1.3°F-17.1°C 71% Calm Calm -- 30.42 in1030.1 mb 0.00 in0.0 mm 0.00 in0.0 mm 0.03 in0.8 mm
08:49 PM 8.6°F-13.0°C 1.1°F-17.2°C 71% Calm Calm -- 30.41 in1029.8 mb 0.00 in0.0 mm 0.00 in0.0 mm 0.03 in0.8 mm
08:54 PM 8.5°F-13.1°C 1.0°F-17.2°C 71% Calm Calm -- 30.41 in1029.8 mb 0.00 in0.0 mm 0.00 in0.0 mm 0.03 in0.8 mm
08:59 PM 8.4°F-13.1°C 0.9°F-17.3°C 71% Calm Calm -- 30.41 in1029.8 mb 0.00 in0.0 mm 0.00 in0.0 mm 0.03 in0.8 mm
09:04 PM 8.3°F-13.2°C 1.1°F-17.2°C 72% Calm Calm -- 30.41 in1029.8 mb 0.00 in0.0 mm 0.00 in0.0 mm 0.03 in0.8 mm
09:09 PM 8.2°F-13.2°C 1.0°F-17.2°C 72% Calm Calm -- 30.41 in1029.8 mb 0.00 in0.0 mm 0.00 in0.0 mm 0.03 in0.8 mm
09:14 PM 8.1°F-13.3°C 1.0°F-17.2°C 72% Calm Calm -- 30.41 in1029.8 mb 0.00 in0.0 mm 0.00 in0.0 mm 0.03 in0.8 mm
09:19 PM 8.1°F-13.3°C 1.0°F-17.2°C 72% Calm Calm -- 30.41 in1029.8 mb 0.00 in0.0 mm 0.00 in0.0 mm 0.03 in0.8 mm
09:24 PM 8.0°F-13.3°C 0.9°F-17.3°C 72% Calm Calm -- 30.41 in1029.8 mb 0.00 in0.0 mm 0.00 in0.0 mm 0.03 in0.8 mm
09:29 PM 8.0°F-13.3°C 1.2°F-17.1°C 73% Calm Calm -- 30.41 in1029.8 mb 0.00 in0.0 mm 0.00 in0.0 mm 0.03 in0.8 mm
09:34 PM 8.0°F-13.3°C 1.2°F-17.1°C 73% Calm Calm -- 30.41 in1029.8 mb 0.00 in0.0 mm 0.00 in0.0 mm 0.03 in0.8 mm
09:39 PM 7.9°F-13.4°C 1.1°F-17.2°C 73% Calm Calm -- 30.41 in1029.8 mb 0.00 in0.0 mm 0.00 in0.0 mm 0.03 in0.8 mm
09:44 PM 7.9°F-13.4°C 1.1°F-17.2°C 73% Calm Calm -- 30.41 in1029.8 mb 0.00 in0.0 mm 0.00 in0.0 mm 0.03 in0.8 mm
09:49 PM 7.8°F-13.4°C 1.0°F-17.2°C 73% Calm Calm -- 30.41 in1029.8 mb 0.00 in0.0 mm 0.00 in0.0 mm 0.03 in0.8 mm
09:54 PM 7.7°F-13.5°C 0.9°F-17.3°C 73% Calm Calm -- 30.41 in1029.8 mb 0.00 in0.0 mm 0.00 in0.0 mm 0.03 in0.8 mm
09:59 PM 7.7°F-13.5°C 0.9°F-17.3°C 73% Calm Calm -- 30.41 in1029.8 mb 0.00 in0.0 mm 0.00 in0.0 mm 0.03 in0.8 mm
10:04 PM 7.6°F-13.6°C 0.8°F-17.3°C 73% Calm Calm -- 30.41 in1029.8 mb 0.00 in0.0 mm 0.00 in0.0 mm 0.03 in0.8 mm
10:09 PM 7.6°F-13.6°C 0.8°F-17.3°C 73% Calm Calm -- 30.41 in1029.8 mb 0.00 in0.0 mm 0.00 in0.0 mm 0.03 in0.8 mm
10:14 PM 7.6°F-13.6°C 0.8°F-17.3°C 73% Calm Calm -- 30.41 in1029.8 mb 0.00 in0.0 mm 0.00 in0.0 mm 0.03 in0.8 mm
10:19 PM 7.5°F-13.6°C 1.0°F-17.2°C 74% Calm Calm -- 30.41 in1029.8 mb 0.00 in0.0 mm 0.00 in0.0 mm 0.03 in0.8 mm
10:24 PM 7.5°F-13.6°C 0.7°F-17.4°C 73% Calm Calm -- 30.41 in1029.8 mb 0.00 in0.0 mm 0.00 in0.0 mm 0.03 in0.8 mm
10:29 PM 7.5°F-13.6°C 1.0°F-17.2°C 74% Calm Calm -- 30.41 in1029.8 mb 0.00 in0.0 mm 0.00 in0.0 mm 0.03 in0.8 mm
10:34 PM 7.5°F-13.6°C 1.0°F-17.2°C 74% Calm Calm -- 30.40 in1029.5 mb 0.00 in0.0 mm 0.00 in0.0 mm 0.03 in0.8 mm
10:39 PM 7.5°F-13.6°C 1.0°F-17.2°C 74% Calm Calm -- 30.40 in1029.5 mb 0.00 in0.0 mm 0.00 in0.0 mm 0.03 in0.8 mm
10:44 PM 7.5°F-13.6°C 1.0°F-17.2°C 74% Calm Calm -- 30.40 in1029.5 mb 0.00 in0.0 mm 0.00 in0.0 mm 0.03 in0.8 mm
10:49 PM 7.5°F-13.6°C 1.0°F-17.2°C 74% Calm Calm -- 30.39 in1029.1 mb 0.00 in0.0 mm 0.00 in0.0 mm 0.03 in0.8 mm
10:54 PM 7.5°F-13.6°C 1.0°F-17.2°C 74% Calm Calm 4.0 mph6.4 kmh 30.39 in1029.1 mb 0.00 in0.0 mm 0.00 in0.0 mm 0.03 in0.8 mm
10:59 PM 7.6°F-13.6°C 1.1°F-17.2°C 74% Calm Calm -- 30.39 in1029.1 mb 0.00 in0.0 mm 0.00 in0.0 mm 0.03 in0.8 mm
11:04 PM 7.7°F-13.5°C 1.5°F-16.9°C 75% Calm Calm 2.0 mph3.2 kmh 30.39 in1029.1 mb 0.00 in0.0 mm 0.00 in0.0 mm 0.03 in0.8 mm
11:09 PM 8.0°F-13.3°C 1.8°F-16.8°C 75% Calm Calm -- 30.40 in1029.5 mb 0.00 in0.0 mm 0.00 in0.0 mm 0.03 in0.8 mm
11:14 PM 8.1°F-13.3°C 1.8°F-16.8°C 75% Calm Calm -- 30.40 in1029.5 mb 0.00 in0.0 mm 0.00 in0.0 mm 0.03 in0.8 mm
11:19 PM 8.2°F-13.2°C 1.9°F-16.7°C 75% Calm Calm -- 30.40 in1029.5 mb 0.00 in0.0 mm 0.00 in0.0 mm 0.03 in0.8 mm
11:24 PM 8.2°F-13.2°C 2.2°F-16.6°C 76% Calm Calm -- 30.40 in1029.5 mb 0.00 in0.0 mm 0.00 in0.0 mm 0.03 in0.8 mm
11:29 PM 8.2°F-13.2°C 2.2°F-16.6°C 76% Calm Calm -- 30.41 in1029.8 mb 0.00 in0.0 mm 0.00 in0.0 mm 0.03 in0.8 mm
11:34 PM 8.2°F-13.2°C 2.2°F-16.6°C 76% Calm Calm -- 30.41 in1029.8 mb 0.00 in0.0 mm 0.00 in0.0 mm 0.03 in0.8 mm
11:39 PM 8.2°F-13.2°C 2.2°F-16.6°C 76% Calm Calm -- 30.40 in1029.5 mb 0.00 in0.0 mm 0.00 in0.0 mm 0.03 in0.8 mm
11:44 PM 8.3°F-13.2°C 2.3°F-16.5°C 76% Calm Calm -- 30.40 in1029.5 mb 0.00 in0.0 mm 0.00 in0.0 mm 0.03 in0.8 mm
11:49 PM 8.3°F-13.2°C 2.3°F-16.5°C 76% Calm Calm -- 30.40 in1029.5 mb 0.00 in0.0 mm 0.00 in0.0 mm 0.03 in0.8 mm
11:54 PM 8.3°F-13.2°C 2.3°F-16.5°C 76% 1.0 mph SE1.6 kmh SE 1.0 mph1.6 kmh 30.39 in1029.1 mb 0.00 in0.0 mm 0.00 in0.0 mm 0.03 in0.8 mm
11:59 PM 8.3°F-13.2°C 2.3°F-16.5°C 76% Calm Calm 3.0 mph4.8 kmh 30.38 in1028.8 mb 0.00 in0.0 mm 0.00 in0.0 mm 0.03 in0.8 mm